createdAt,value
2024-03-09T00:01:39.188Z,53.28
2024-03-09T00:04:40.598Z,49.22
2024-03-09T00:07:42.042Z,54.38
2024-03-09T00:10:44.104Z,55.15
2024-03-09T00:13:45.341Z,48.35
2024-03-09T00:16:46.829Z,52.38
2024-03-09T00:19:48.400Z,58.90
2024-03-09T00:22:51.069Z,52.47
2024-03-09T00:25:52.260Z,51.22
2024-03-09T00:28:55.967Z,55.67
2024-03-09T00:31:57.478Z,53.75
2024-03-09T00:34:59.583Z,54.92
2024-03-09T00:38:01.438Z,52.33
2024-03-09T00:41:03.232Z,55.67
2024-03-09T00:44:05.606Z,51.95
2024-03-09T00:47:06.868Z,58.55
2024-03-09T00:50:10.809Z,53.78
2024-03-09T00:53:12.021Z,54.85
2024-03-09T00:56:13.348Z,47.22
2024-03-09T00:59:17.382Z,46.38
2024-03-09T01:02:19.806Z,53.28
2024-03-09T01:05:24.637Z,63.10
2024-03-09T01:08:26.599Z,51.30
2024-03-09T01:11:28.309Z,51.67
2024-03-09T01:14:29.825Z,53.50
2024-03-09T01:17:31.062Z,55.40
2024-03-09T01:20:32.116Z,51.75
2024-03-09T01:23:33.508Z,50.55
2024-03-09T01:26:34.885Z,52.78
2024-03-09T01:29:36.991Z,57.33
2024-03-09T01:32:37.762Z,56.35
2024-03-09T01:35:39.273Z,52.63
2024-03-09T01:38:41.465Z,57.38
2024-03-09T01:41:42.968Z,54.63
2024-03-09T01:44:43.976Z,63.38
2024-03-09T01:47:44.969Z,60.33
2024-03-09T01:50:46.498Z,61.88
2024-03-09T01:53:54.778Z,53.00
2024-03-09T01:56:58.487Z,55.45
2024-03-09T02:00:00.577Z,45.67
2024-03-09T02:03:02.172Z,56.47
2024-03-09T02:06:03.236Z,52.30
2024-03-09T02:09:09.399Z,64.60
2024-03-09T02:12:21.156Z,65.57
2024-03-09T02:15:28.689Z,65.50
2024-03-09T02:21:36.298Z,61.97
2024-03-09T02:24:45.154Z,64.22
2024-03-09T02:27:46.568Z,52.22
2024-03-09T02:30:49.783Z,59.42
2024-03-09T02:33:57.276Z,62.42
2024-03-09T02:36:58.265Z,66.60
2024-03-09T02:39:59.287Z,69.30
2024-03-09T02:43:07.626Z,56.95
2024-03-09T02:46:09.035Z,59.10
2024-03-09T02:49:10.771Z,60.97
2024-03-09T02:52:12.033Z,57.10
2024-03-09T02:55:13.296Z,63.83
2024-03-09T02:58:14.571Z,67.45
2024-03-09T03:01:18.299Z,65.93
2024-03-09T03:04:20.021Z,69.55
2024-03-09T03:07:21.372Z,69.75
2024-03-09T03:10:22.486Z,71.70
2024-03-09T03:13:23.722Z,80.28
2024-03-09T03:16:29.306Z,82.65
2024-03-09T03:19:30.333Z,85.38
2024-03-09T03:22:31.840Z,94.97
2024-03-09T03:25:33.313Z,77.63
2024-03-09T03:28:34.576Z,74.93
2024-03-09T03:31:37.971Z,64.35
2024-03-09T03:34:39.472Z,76.18
2024-03-09T03:37:42.972Z,91.40
2024-03-09T03:40:45.867Z,89.68
2024-03-09T03:43:47.000Z,88.85
2024-03-09T03:46:48.813Z,86.45
2024-03-09T03:49:50.181Z,97.55
2024-03-09T03:52:51.277Z,96.95
2024-03-09T03:55:53.247Z,102.10
2024-03-09T03:58:55.336Z,101.10
2024-03-09T04:01:56.661Z,112.55
2024-03-09T04:04:57.977Z,97.45
2024-03-09T04:07:59.349Z,106.50
2024-03-09T04:11:01.448Z,97.80
2024-03-09T04:14:03.109Z,96.95
2024-03-09T04:17:04.418Z,100.40
2024-03-09T04:20:06.969Z,96.43
2024-03-09T04:23:09.413Z,98.68
2024-03-09T04:26:12.602Z,93.65
2024-03-09T04:29:13.614Z,89.78
2024-03-09T04:32:15.999Z,80.85
2024-03-09T04:35:17.269Z,83.35
2024-03-09T04:38:18.714Z,82.75
2024-03-09T04:41:20.297Z,86.90
2024-03-09T04:44:30.108Z,100.18
2024-03-09T04:47:34.508Z,102.95
2024-03-09T04:50:35.493Z,92.03
2024-03-09T04:53:36.947Z,88.40
2024-03-09T04:56:38.342Z,87.88
2024-03-09T04:59:40.753Z,89.97
2024-03-09T05:02:47.136Z,91.15
2024-03-09T05:05:48.351Z,90.32
2024-03-09T05:08:49.733Z,89.55
2024-03-09T05:11:51.553Z,94.07
2024-03-09T05:14:52.720Z,87.38
2024-03-09T05:17:56.440Z,96.13
2024-03-09T05:20:57.958Z,94.30
2024-03-09T05:23:59.221Z,88.93
2024-03-09T05:27:00.037Z,97.35
2024-03-09T05:30:01.428Z,97.97
2024-03-09T05:33:08.646Z,94.28
2024-03-09T05:36:10.323Z,86.35
2024-03-09T05:39:14.949Z,104.15
2024-03-09T05:42:15.969Z,97.60
2024-03-09T05:45:22.546Z,99.70
2024-03-09T05:48:23.724Z,102.93
2024-03-09T05:51:25.456Z,103.85
2024-03-09T05:54:26.832Z,110.55
2024-03-09T05:57:28.520Z,111.32
2024-03-09T06:00:33.152Z,104.78
2024-03-09T06:03:35.084Z,108.00
2024-03-09T06:06:35.950Z,110.05
2024-03-09T06:09:37.000Z,108.00
2024-03-09T06:12:39.680Z,118.30
2024-03-09T06:15:42.843Z,117.07
2024-03-09T06:18:49.143Z,119.40
2024-03-09T06:21:52.227Z,121.95
2024-03-09T06:24:53.115Z,125.00
2024-03-09T06:27:56.567Z,130.18
2024-03-09T06:31:00.043Z,127.32
2024-03-09T06:34:01.373Z,130.77
2024-03-09T06:37:02.979Z,121.93
2024-03-09T06:40:06.325Z,125.88
2024-03-09T06:43:11.466Z,116.45
2024-03-09T06:46:12.663Z,118.10
2024-03-09T06:49:14.020Z,132.70
2024-03-09T06:52:16.556Z,117.88
2024-03-09T06:55:19.789Z,133.77
2024-03-09T06:58:21.158Z,117.20
2024-03-09T07:01:23.326Z,100.80
2024-03-09T07:04:27.302Z,108.50
2024-03-09T07:07:28.677Z,103.32
2024-03-09T07:10:30.892Z,104.95
2024-03-09T07:13:32.300Z,100.32
2024-03-09T07:16:34.177Z,92.45
2024-03-09T07:19:38.151Z,96.63
2024-03-09T07:22:45.097Z,93.40
2024-03-09T07:25:46.580Z,90.05
2024-03-09T07:28:47.814Z,82.30
2024-03-09T07:31:48.916Z,81.10
2024-03-09T07:34:50.313Z,71.90
2024-03-09T07:37:56.980Z,66.05
2024-03-09T07:40:58.247Z,62.87
2024-03-09T07:43:59.960Z,70.63
2024-03-09T07:47:01.743Z,65.80
2024-03-09T07:50:03.407Z,60.63
2024-03-09T07:53:07.796Z,54.67
2024-03-09T07:56:11.808Z,57.50
2024-03-09T07:59:14.679Z,52.22
2024-03-09T08:02:16.178Z,49.92
2024-03-09T08:05:21.009Z,51.88
2024-03-09T08:08:23.447Z,46.28
2024-03-09T08:11:25.432Z,42.97
2024-03-09T08:14:29.166Z,37.13
2024-03-09T08:17:31.945Z,41.65
2024-03-09T08:20:33.407Z,44.05
2024-03-09T08:23:34.877Z,41.17
2024-03-09T08:26:36.292Z,34.17
2024-03-09T08:29:37.227Z,31.77
2024-03-09T08:32:38.553Z,30.02
2024-03-09T08:35:40.552Z,28.23
2024-03-09T08:38:42.513Z,27.65
2024-03-09T08:41:43.743Z,26.63
2024-03-09T08:44:46.016Z,28.13
2024-03-09T08:47:52.424Z,27.10
2024-03-09T08:50:53.947Z,26.25
2024-03-09T08:53:55.568Z,35.38
2024-03-09T08:56:56.691Z,23.02
2024-03-09T09:00:01.003Z,24.73
2024-03-09T09:03:04.735Z,20.80
2024-03-09T09:06:06.132Z,21.42
2024-03-09T09:09:11.585Z,27.10
2024-03-09T09:12:13.095Z,18.30
2024-03-09T09:15:18.407Z,21.08
2024-03-09T09:18:20.442Z,24.83
2024-03-09T09:21:21.322Z,19.65
2024-03-09T09:24:22.779Z,18.77
2024-03-09T09:27:25.226Z,18.63
2024-03-09T09:30:27.901Z,16.88
2024-03-09T09:33:29.171Z,15.50
2024-03-09T09:36:31.364Z,14.63
2024-03-09T09:39:35.396Z,16.30
2024-03-09T09:42:37.444Z,18.50
2024-03-09T09:45:46.199Z,14.57
2024-03-09T09:48:52.120Z,13.10
2024-03-09T09:51:57.993Z,11.55
2024-03-09T09:55:03.806Z,11.60
2024-03-09T09:58:06.030Z,13.07
2024-03-09T10:01:09.487Z,10.77
2024-03-09T10:04:12.285Z,12.38
2024-03-09T10:07:14.040Z,10.43
2024-03-09T10:10:16.075Z,10.55
2024-03-09T10:13:19.042Z,12.05
2024-03-09T10:16:30.618Z,10.18
2024-03-09T10:19:35.220Z,13.25
2024-03-09T10:22:36.439Z,13.45
2024-03-09T10:25:39.121Z,12.88
2024-03-09T10:28:41.530Z,11.38
2024-03-09T10:31:46.733Z,13.55
2024-03-09T10:34:47.760Z,12.18
2024-03-09T10:37:52.458Z,12.68
2024-03-09T10:40:59.165Z,14.98
2024-03-09T10:44:02.910Z,13.25
2024-03-09T10:47:10.428Z,13.43
2024-03-09T10:50:20.369Z,10.40
2024-03-09T10:53:48.308Z,10.80
2024-03-09T10:56:55.721Z,10.05
2024-03-09T11:00:01.568Z,8.93
2024-03-09T11:03:05.311Z,9.35
2024-03-09T11:06:11.421Z,8.93
2024-03-09T11:09:15.451Z,9.10
2024-03-09T11:12:17.529Z,8.88
2024-03-09T11:15:22.537Z,7.80
2024-03-09T11:18:25.174Z,8.73
2024-03-09T11:21:35.934Z,7.15
2024-03-09T11:24:41.704Z,6.97
2024-03-09T11:27:43.963Z,6.43
2024-03-09T11:31:13.491Z,6.45
2024-03-09T11:34:17.564Z,6.22
2024-03-09T11:37:18.344Z,6.53
2024-03-09T11:40:19.765Z,6.65
2024-03-09T11:43:21.179Z,6.78
2024-03-09T11:46:22.482Z,5.60
2024-03-09T11:49:29.389Z,5.25
2024-03-09T11:55:33.087Z,4.65
2024-03-09T11:58:34.371Z,5.47
2024-03-09T12:01:36.788Z,4.80
2024-03-09T12:04:38.592Z,4.43
2024-03-09T12:07:41.240Z,4.88
2024-03-09T12:10:44.320Z,4.60
2024-03-09T12:13:47.515Z,5.10
2024-03-09T12:16:52.794Z,5.93
2024-03-09T12:19:54.981Z,6.15
2024-03-09T12:22:56.455Z,5.97
2024-03-09T12:25:57.978Z,8.38
2024-03-09T12:29:05.433Z,5.20
2024-03-09T12:32:08.112Z,3.88
2024-03-09T12:35:09.999Z,3.90
2024-03-09T12:38:16.478Z,4.05
2024-03-09T12:41:33.409Z,6.25
2024-03-09T12:47:44.805Z,3.95
2024-03-09T12:50:48.293Z,4.03
2024-03-09T12:54:01.682Z,3.28
2024-03-09T12:57:05.788Z,3.22
2024-03-09T13:00:13.492Z,3.50
2024-03-09T13:03:19.719Z,4.10
2024-03-09T13:06:21.726Z,3.58
2024-03-09T13:09:23.863Z,3.72
2024-03-09T13:12:25.945Z,3.28
2024-03-09T13:15:27.477Z,4.07
2024-03-09T13:18:29.692Z,4.63
2024-03-09T13:21:30.732Z,4.47
2024-03-09T13:24:32.217Z,6.20
2024-03-09T13:27:33.517Z,5.05
2024-03-09T13:30:41.214Z,10.93
2024-03-09T13:33:45.045Z,4.25
2024-03-09T13:36:47.453Z,3.83
2024-03-09T13:39:48.563Z,3.20
2024-03-09T13:42:52.636Z,3.63
2024-03-09T13:45:53.792Z,3.22
2024-03-09T13:48:55.329Z,3.40
2024-03-09T13:52:01.070Z,3.35
2024-03-09T13:55:02.858Z,3.63
2024-03-09T13:58:05.614Z,3.00
2024-03-09T14:01:11.380Z,3.58
2024-03-09T14:04:14.518Z,3.10
2024-03-09T14:07:17.359Z,2.42
2024-03-09T14:10:20.449Z,2.50
2024-03-09T14:13:22.907Z,3.08
2024-03-09T14:16:27.022Z,2.88
2024-03-09T14:19:29.833Z,2.30
2024-03-09T14:22:34.187Z,2.83
2024-03-09T14:25:37.022Z,3.22
2024-03-09T14:28:38.830Z,2.92
2024-03-09T14:31:40.499Z,1.80
2024-03-09T14:34:42.401Z,2.08
2024-03-09T14:37:45.083Z,2.58
2024-03-09T14:40:49.968Z,3.17
2024-03-09T14:43:52.152Z,1.58
2024-03-09T14:46:53.492Z,5.47
2024-03-09T14:49:55.915Z,1.38
2024-03-09T14:52:57.511Z,1.30
2024-03-09T14:55:58.965Z,1.20
2024-03-09T14:59:06.946Z,3.17
2024-03-09T15:02:08.962Z,1.92
2024-03-09T15:05:12.249Z,6.30
2024-03-09T15:08:13.727Z,2.03
2024-03-09T15:11:17.987Z,2.85
2024-03-09T15:14:22.618Z,2.67
2024-03-09T15:17:23.700Z,2.08
2024-03-09T15:20:28.350Z,4.20
2024-03-09T15:23:29.619Z,2.45
2024-03-09T15:26:32.633Z,1.85
2024-03-09T15:29:35.224Z,2.30
2024-03-09T15:32:36.694Z,1.80
2024-03-09T15:35:39.339Z,1.88
2024-03-09T15:38:43.527Z,2.72
2024-03-09T15:41:44.711Z,1.83
2024-03-09T15:44:45.779Z,1.50
2024-03-09T15:47:54.891Z,1.45
2024-03-09T15:50:56.416Z,0.95
2024-03-09T15:53:58.337Z,1.45
2024-03-09T15:56:59.684Z,0.80
2024-03-09T16:00:00.778Z,0.80
2024-03-09T16:03:02.588Z,1.27
2024-03-09T16:06:04.096Z,0.52
2024-03-09T16:09:13.731Z,0.57
2024-03-09T16:12:15.557Z,0.75
2024-03-09T16:15:19.206Z,0.50
2024-03-09T16:18:20.478Z,0.70
2024-03-09T16:21:22.393Z,0.80
2024-03-09T16:24:23.953Z,0.60
2024-03-09T16:27:26.979Z,1.10
2024-03-09T16:30:31.423Z,2.58
2024-03-09T16:33:34.448Z,2.63
2024-03-09T16:36:36.289Z,0.98
2024-03-09T16:39:37.950Z,0.52
2024-03-09T16:42:40.383Z,0.65
2024-03-09T16:45:42.390Z,0.52
2024-03-09T16:48:43.573Z,0.70
2024-03-09T16:51:45.725Z,2.38
2024-03-09T16:54:47.117Z,2.65
2024-03-09T16:57:48.591Z,1.30
2024-03-09T17:00:49.593Z,1.30
2024-03-09T17:03:50.319Z,1.02
2024-03-09T17:06:55.440Z,0.73
2024-03-09T17:09:57.993Z,0.80
2024-03-09T17:13:00.306Z,1.33
2024-03-09T17:16:02.490Z,0.65
2024-03-09T17:19:04.107Z,0.93
2024-03-09T17:22:05.397Z,0.60
2024-03-09T17:25:07.002Z,1.30
2024-03-09T17:28:08.389Z,1.10
2024-03-09T17:31:09.655Z,0.70
2024-03-09T17:34:11.100Z,1.10
2024-03-09T17:37:12.155Z,1.48
2024-03-09T17:40:15.778Z,1.23
2024-03-09T17:43:17.633Z,1.17
2024-03-09T17:46:18.842Z,1.90
2024-03-09T17:49:20.326Z,1.63
2024-03-09T17:52:21.351Z,1.38
2024-03-09T17:55:22.981Z,3.22
2024-03-09T17:58:24.508Z,2.17
2024-03-09T18:01:29.009Z,1.20
2024-03-09T18:04:34.512Z,1.52
2024-03-09T18:07:35.702Z,5.03
2024-03-09T18:10:42.905Z,2.20
2024-03-09T18:16:47.376Z,1.25
2024-03-09T18:19:48.558Z,0.65
2024-03-09T18:22:51.320Z,0.80
2024-03-09T18:25:53.365Z,2.28
2024-03-09T18:28:55.147Z,0.80
2024-03-09T18:31:57.362Z,1.35
2024-03-09T18:34:58.728Z,1.25
2024-03-09T18:38:04.405Z,1.00
2024-03-09T18:41:07.653Z,0.88
2024-03-09T18:44:10.098Z,0.90
2024-03-09T18:47:11.772Z,0.70
2024-03-09T18:50:19.695Z,0.68
2024-03-09T18:53:21.022Z,1.27
2024-03-09T18:56:22.317Z,1.13
2024-03-09T18:59:24.172Z,1.02
2024-03-09T19:02:25.871Z,0.73
2024-03-09T19:05:28.152Z,1.77
2024-03-09T19:08:30.576Z,0.85
2024-03-09T19:11:32.626Z,0.57
2024-03-09T19:14:33.710Z,0.50
2024-03-09T19:17:35.083Z,0.75
2024-03-09T19:20:40.005Z,0.40
2024-03-09T19:23:41.932Z,0.50
2024-03-09T19:26:42.925Z,0.47
2024-03-09T19:29:44.347Z,0.47
2024-03-09T19:32:48.284Z,0.65
2024-03-09T19:35:49.697Z,0.50
2024-03-09T19:38:51.757Z,0.60
2024-03-09T19:41:54.105Z,0.60
2024-03-09T19:44:58.652Z,0.40
2024-03-09T19:48:00.021Z,0.50
2024-03-09T19:51:05.703Z,0.60
2024-03-09T19:54:07.065Z,1.55
2024-03-09T19:57:09.855Z,0.60
2024-03-09T20:00:15.527Z,0.50
2024-03-09T20:03:16.792Z,1.00
2024-03-09T20:06:19.151Z,0.50
2024-03-09T20:09:20.713Z,0.70
2024-03-09T20:12:22.263Z,2.00
2024-03-09T20:15:26.690Z,0.50
2024-03-09T20:18:28.973Z,1.38
2024-03-09T20:21:31.547Z,1.67
2024-03-09T20:24:32.819Z,4.28
2024-03-09T20:27:34.799Z,2.50
2024-03-09T20:30:39.374Z,1.15
2024-03-09T20:33:40.472Z,1.20
2024-03-09T20:36:42.732Z,0.82
2024-03-09T20:39:43.952Z,0.85
2024-03-09T20:42:51.380Z,2.50
2024-03-09T20:45:53.378Z,0.63
2024-03-09T20:48:55.444Z,0.70
2024-03-09T20:51:56.470Z,0.60
2024-03-09T20:54:59.368Z,0.80
2024-03-09T20:58:00.859Z,0.80
2024-03-09T21:01:02.577Z,3.40
2024-03-09T21:04:06.025Z,0.52
2024-03-09T21:07:07.569Z,0.50
2024-03-09T21:10:14.866Z,0.50
2024-03-09T21:16:17.990Z,0.70
2024-03-09T21:19:18.867Z,0.82
2024-03-09T21:22:21.085Z,1.58
2024-03-09T21:25:22.081Z,0.95
2024-03-09T21:28:23.554Z,0.63
2024-03-09T21:31:24.666Z,0.70
2024-03-09T21:34:25.696Z,0.63
2024-03-09T21:37:27.207Z,0.50
2024-03-09T21:40:28.179Z,0.80
2024-03-09T21:43:29.161Z,0.70
2024-03-09T21:46:30.518Z,0.60
2024-03-09T21:49:32.090Z,0.60
2024-03-09T21:52:33.250Z,0.50
2024-03-09T21:55:35.630Z,0.60
2024-03-09T21:58:37.707Z,0.40
2024-03-09T22:01:38.950Z,0.70
2024-03-09T22:04:40.523Z,1.50
2024-03-09T22:07:41.621Z,5.28
2024-03-09T22:10:42.778Z,3.10
2024-03-09T22:13:44.758Z,0.80
2024-03-09T22:16:46.149Z,1.00
2024-03-09T22:19:47.339Z,0.77
2024-03-09T22:22:49.514Z,4.55
2024-03-09T22:25:50.796Z,0.55
2024-03-09T22:28:54.429Z,1.75
2024-03-09T22:31:56.284Z,0.77
2024-03-09T22:34:57.431Z,0.70
2024-03-09T22:37:59.364Z,0.70
2024-03-09T22:41:00.662Z,0.88
2024-03-09T22:44:02.134Z,0.60
2024-03-09T22:47:03.321Z,0.90
2024-03-09T22:50:08.417Z,0.60
2024-03-09T22:53:10.448Z,1.10
2024-03-09T22:56:12.427Z,0.50
2024-03-09T22:59:13.715Z,0.52
2024-03-09T23:02:15.125Z,1.75
2024-03-09T23:05:16.985Z,0.60
2024-03-09T23:08:18.278Z,0.70
2024-03-09T23:11:19.704Z,1.33
2024-03-09T23:14:22.564Z,1.20
2024-03-09T23:17:24.292Z,0.85
2024-03-09T23:20:29.077Z,1.10
2024-03-09T23:23:30.724Z,0.70
2024-03-09T23:26:32.632Z,0.70
2024-03-09T23:29:34.217Z,0.50
2024-03-09T23:32:35.833Z,0.98
2024-03-09T23:35:37.152Z,1.15
2024-03-09T23:38:40.502Z,0.52
2024-03-09T23:41:41.937Z,0.98
2024-03-09T23:44:43.372Z,1.17
2024-03-09T23:47:45.945Z,0.77
2024-03-09T23:50:47.800Z,0.70
2024-03-09T23:53:48.872Z,1.17
2024-03-09T23:56:49.819Z,1.30
2024-03-09T23:59:55.677Z,0.60
